sensor_id;sensor_type;location;lat;lon;timestamp;P1;durP1;ratioP1;P2;durP2;ratioP2
35364;SDS011;21464;48.112;11.530;2022-07-21T00:02:05;5.57;;;5.00;;
35364;SDS011;21464;48.112;11.530;2022-07-21T00:04:31;5.35;;;4.88;;
35364;SDS011;21464;48.112;11.530;2022-07-21T00:06:58;6.10;;;5.00;;
35364;SDS011;21464;48.112;11.530;2022-07-21T00:09:24;7.47;;;4.85;;
35364;SDS011;21464;48.112;11.530;2022-07-21T00:11:50;6.93;;;4.55;;
35364;SDS011;21464;48.112;11.530;2022-07-21T00:14:16;6.90;;;4.75;;
35364;SDS011;21464;48.112;11.530;2022-07-21T00:16:43;7.03;;;4.57;;
35364;SDS011;21464;48.112;11.530;2022-07-21T00:19:09;6.10;;;4.90;;
35364;SDS011;21464;48.112;11.530;2022-07-21T00:21:36;5.10;;;4.60;;
35364;SDS011;21464;48.112;11.530;2022-07-21T00:24:03;5.57;;;4.60;;
35364;SDS011;21464;48.112;11.530;2022-07-21T00:26:29;7.10;;;5.13;;
35364;SDS011;21464;48.112;11.530;2022-07-21T00:28:55;7.00;;;4.97;;
35364;SDS011;21464;48.112;11.530;2022-07-21T00:31:21;6.72;;;5.80;;
35364;SDS011;21464;48.112;11.530;2022-07-21T00:33:47;6.30;;;5.70;;
35364;SDS011;21464;48.112;11.530;2022-07-21T00:36:17;6.00;;;5.38;;
35364;SDS011;21464;48.112;11.530;2022-07-21T00:38:44;6.90;;;5.07;;
35364;SDS011;21464;48.112;11.530;2022-07-21T00:41:10;6.00;;;5.47;;
35364;SDS011;21464;48.112;11.530;2022-07-21T00:43:36;6.28;;;5.68;;
35364;SDS011;21464;48.112;11.530;2022-07-21T00:46:02;5.97;;;5.38;;
35364;SDS011;21464;48.112;11.530;2022-07-21T00:48:29;5.47;;;5.07;;
35364;SDS011;21464;48.112;11.530;2022-07-21T00:50:55;6.00;;;5.50;;
35364;SDS011;21464;48.112;11.530;2022-07-21T00:53:21;6.32;;;5.70;;
35364;SDS011;21464;48.112;11.530;2022-07-21T00:55:47;6.82;;;5.63;;
35364;SDS011;21464;48.112;11.530;2022-07-21T00:58:14;6.32;;;5.20;;
35364;SDS011;21464;48.112;11.530;2022-07-21T01:00:40;7.43;;;6.07;;
35364;SDS011;21464;48.112;11.530;2022-07-21T01:03:07;7.07;;;6.45;;
35364;SDS011;21464;48.112;11.530;2022-07-21T01:05:34;8.18;;;7.20;;
35364;SDS011;21464;48.112;11.530;2022-07-21T01:08:00;8.10;;;7.30;;
35364;SDS011;21464;48.112;11.530;2022-07-21T01:10:29;11.75;;;9.48;;
35364;SDS011;21464;48.112;11.530;2022-07-21T01:12:56;10.90;;;9.23;;
35364;SDS011;21464;48.112;11.530;2022-07-21T01:15:22;10.93;;;9.23;;
35364;SDS011;21464;48.112;11.530;2022-07-21T01:17:49;9.70;;;8.80;;
35364;SDS011;21464;48.112;11.530;2022-07-21T01:20:17;9.55;;;8.35;;
35364;SDS011;21464;48.112;11.530;2022-07-21T01:22:46;9.70;;;8.80;;
35364;SDS011;21464;48.112;11.530;2022-07-21T01:25:14;8.55;;;7.63;;
35364;SDS011;21464;48.112;11.530;2022-07-21T01:27:41;8.73;;;7.53;;
35364;SDS011;21464;48.112;11.530;2022-07-21T01:30:07;7.93;;;7.22;;
35364;SDS011;21464;48.112;11.530;2022-07-21T01:32:35;8.05;;;7.20;;
35364;SDS011;21464;48.112;11.530;2022-07-21T01:35:05;7.22;;;6.60;;
35364;SDS011;21464;48.112;11.530;2022-07-21T01:37:34;7.20;;;6.47;;
35364;SDS011;21464;48.112;11.530;2022-07-21T01:40:02;7.45;;;6.75;;
35364;SDS011;21464;48.112;11.530;2022-07-21T01:42:47;9.00;;;7.05;;
35364;SDS011;21464;48.112;11.530;2022-07-21T01:45:14;8.65;;;6.70;;
35364;SDS011;21464;48.112;11.530;2022-07-21T01:47:40;8.10;;;7.13;;
35364;SDS011;21464;48.112;11.530;2022-07-21T01:50:06;8.45;;;7.53;;
35364;SDS011;21464;48.112;11.530;2022-07-21T01:52:33;8.82;;;8.02;;
35364;SDS011;21464;48.112;11.530;2022-07-21T01:54:59;9.05;;;7.95;;
35364;SDS011;21464;48.112;11.530;2022-07-21T01:57:25;10.93;;;8.35;;
35364;SDS011;21464;48.112;11.530;2022-07-21T01:59:51;9.35;;;7.50;;
35364;SDS011;21464;48.112;11.530;2022-07-21T02:02:18;8.60;;;7.45;;
35364;SDS011;21464;48.112;11.530;2022-07-21T02:04:47;10.05;;;8.50;;
35364;SDS011;21464;48.112;11.530;2022-07-21T02:07:15;9.15;;;8.05;;
35364;SDS011;21464;48.112;11.530;2022-07-21T02:09:42;8.68;;;7.82;;
35364;SDS011;21464;48.112;11.530;2022-07-21T02:12:08;8.65;;;7.15;;
35364;SDS011;21464;48.112;11.530;2022-07-21T02:14:35;8.73;;;6.95;;
35364;SDS011;21464;48.112;11.530;2022-07-21T02:17:01;7.88;;;6.75;;
35364;SDS011;21464;48.112;11.530;2022-07-21T02:19:27;8.98;;;7.00;;
35364;SDS011;21464;48.112;11.530;2022-07-21T02:21:53;9.75;;;7.00;;
35364;SDS011;21464;48.112;11.530;2022-07-21T02:24:20;7.80;;;7.00;;
35364;SDS011;21464;48.112;11.530;2022-07-21T02:26:46;8.38;;;7.50;;
35364;SDS011;21464;48.112;11.530;2022-07-21T02:29:12;8.13;;;7.32;;
35364;SDS011;21464;48.112;11.530;2022-07-21T02:31:38;7.97;;;7.18;;
35364;SDS011;21464;48.112;11.530;2022-07-21T02:34:04;9.70;;;8.10;;
35364;SDS011;21464;48.112;11.530;2022-07-21T02:36:32;7.72;;;7.03;;
35364;SDS011;21464;48.112;11.530;2022-07-21T02:38:59;8.70;;;7.80;;
35364;SDS011;21464;48.112;11.530;2022-07-21T02:41:25;8.50;;;7.47;;
35364;SDS011;21464;48.112;11.530;2022-07-21T02:43:52;8.50;;;7.72;;
35364;SDS011;21464;48.112;11.530;2022-07-21T02:46:18;8.88;;;8.07;;
35364;SDS011;21464;48.112;11.530;2022-07-21T02:48:44;8.60;;;7.70;;
35364;SDS011;21464;48.112;11.530;2022-07-21T02:51:10;11.05;;;8.65;;
35364;SDS011;21464;48.112;11.530;2022-07-21T02:53:37;8.82;;;8.05;;
35364;SDS011;21464;48.112;11.530;2022-07-21T02:56:03;9.05;;;8.25;;
35364;SDS011;21464;48.112;11.530;2022-07-21T02:58:30;9.55;;;8.55;;
35364;SDS011;21464;48.112;11.530;2022-07-21T03:00:57;10.27;;;8.57;;
35364;SDS011;21464;48.112;11.530;2022-07-21T03:03:26;8.98;;;8.07;;
35364;SDS011;21464;48.112;11.530;2022-07-21T03:05:54;8.90;;;8.10;;
35364;SDS011;21464;48.112;11.530;2022-07-21T03:08:20;9.57;;;8.57;;
35364;SDS011;21464;48.112;11.530;2022-07-21T03:10:47;9.75;;;8.85;;
35364;SDS011;21464;48.112;11.530;2022-07-21T03:13:14;8.85;;;8.15;;
35364;SDS011;21464;48.112;11.530;2022-07-21T03:15:41;9.50;;;8.35;;
35364;SDS011;21464;48.112;11.530;2022-07-21T03:18:07;10.35;;;9.35;;
35364;SDS011;21464;48.112;11.530;2022-07-21T03:20:35;9.23;;;8.23;;
35364;SDS011;21464;48.112;11.530;2022-07-21T03:23:03;9.38;;;8.48;;
35364;SDS011;21464;48.112;11.530;2022-07-21T03:25:30;9.40;;;8.55;;
35364;SDS011;21464;48.112;11.530;2022-07-21T03:27:56;10.23;;;9.32;;
35364;SDS011;21464;48.112;11.530;2022-07-21T03:30:23;10.18;;;9.27;;
35364;SDS011;21464;48.112;11.530;2022-07-21T03:32:50;10.15;;;9.15;;
35364;SDS011;21464;48.112;11.530;2022-07-21T03:35:17;10.35;;;9.35;;
35364;SDS011;21464;48.112;11.530;2022-07-21T03:37:44;10.35;;;9.45;;
35364;SDS011;21464;48.112;11.530;2022-07-21T03:40:13;10.73;;;9.63;;
35364;SDS011;21464;48.112;11.530;2022-07-21T03:42:40;10.85;;;9.77;;
35364;SDS011;21464;48.112;11.530;2022-07-21T03:45:06;11.75;;;10.65;;
35364;SDS011;21464;48.112;11.530;2022-07-21T03:47:33;12.73;;;11.52;;
35364;SDS011;21464;48.112;11.530;2022-07-21T03:49:59;12.43;;;11.38;;
35364;SDS011;21464;48.112;11.530;2022-07-21T03:52:26;15.55;;;14.10;;
35364;SDS011;21464;48.112;11.530;2022-07-21T03:54:52;11.75;;;10.70;;
35364;SDS011;21464;48.112;11.530;2022-07-21T03:57:37;12.10;;;10.90;;
35364;SDS011;21464;48.112;11.530;2022-07-21T04:00:08;13.32;;;12.13;;
35364;SDS011;21464;48.112;11.530;2022-07-21T04:02:39;11.50;;;10.32;;
35364;SDS011;21464;48.112;11.530;2022-07-21T04:05:09;11.98;;;10.88;;
35364;SDS011;21464;48.112;11.530;2022-07-21T04:07:38;11.88;;;10.77;;
35364;SDS011;21464;48.112;11.530;2022-07-21T04:10:05;12.48;;;11.27;;
35364;SDS011;21464;48.112;11.530;2022-07-21T04:12:32;11.35;;;10.18;;
35364;SDS011;21464;48.112;11.530;2022-07-21T04:14:58;13.77;;;11.98;;
35364;SDS011;21464;48.112;11.530;2022-07-21T04:17:25;12.35;;;11.13;;
35364;SDS011;21464;48.112;11.530;2022-07-21T04:19:51;11.77;;;10.55;;
35364;SDS011;21464;48.112;11.530;2022-07-21T04:22:17;12.57;;;11.40;;
35364;SDS011;21464;48.112;11.530;2022-07-21T04:24:43;11.95;;;10.80;;
35364;SDS011;21464;48.112;11.530;2022-07-21T04:27:10;12.55;;;11.35;;
35364;SDS011;21464;48.112;11.530;2022-07-21T04:29:36;12.63;;;11.52;;
35364;SDS011;21464;48.112;11.530;2022-07-21T04:32:02;13.18;;;11.77;;
35364;SDS011;21464;48.112;11.530;2022-07-21T04:34:29;13.05;;;11.85;;
35364;SDS011;21464;48.112;11.530;2022-07-21T04:36:55;13.10;;;11.77;;
35364;SDS011;21464;48.112;11.530;2022-07-21T04:39:21;12.63;;;11.52;;
35364;SDS011;21464;48.112;11.530;2022-07-21T04:41:47;12.80;;;11.55;;
35364;SDS011;21464;48.112;11.530;2022-07-21T04:44:13;13.63;;;12.48;;
35364;SDS011;21464;48.112;11.530;2022-07-21T04:46:40;13.60;;;12.45;;
35364;SDS011;21464;48.112;11.530;2022-07-21T04:49:06;13.23;;;12.02;;
35364;SDS011;21464;48.112;11.530;2022-07-21T04:51:32;14.32;;;12.82;;
35364;SDS011;21464;48.112;11.530;2022-07-21T04:53:58;14.55;;;13.23;;
35364;SDS011;21464;48.112;11.530;2022-07-21T04:56:25;13.85;;;12.45;;
35364;SDS011;21464;48.112;11.530;2022-07-21T04:58:51;14.05;;;12.75;;
35364;SDS011;21464;48.112;11.530;2022-07-21T05:01:17;13.77;;;12.40;;
35364;SDS011;21464;48.112;11.530;2022-07-21T05:03:44;14.00;;;12.63;;
35364;SDS011;21464;48.112;11.530;2022-07-21T05:06:11;13.23;;;11.88;;
35364;SDS011;21464;48.112;11.530;2022-07-21T05:08:37;14.18;;;12.68;;
35364;SDS011;21464;48.112;11.530;2022-07-21T05:11:04;13.88;;;12.48;;
35364;SDS011;21464;48.112;11.530;2022-07-21T05:13:30;13.85;;;12.55;;
35364;SDS011;21464;48.112;11.530;2022-07-21T05:15:56;15.07;;;13.52;;
35364;SDS011;21464;48.112;11.530;2022-07-21T05:18:22;14.23;;;12.82;;
35364;SDS011;21464;48.112;11.530;2022-07-21T05:20:49;14.55;;;13.18;;
35364;SDS011;21464;48.112;11.530;2022-07-21T05:23:15;15.27;;;13.77;;
35364;SDS011;21464;48.112;11.530;2022-07-21T05:25:41;15.90;;;14.35;;
35364;SDS011;21464;48.112;11.530;2022-07-21T05:28:07;15.02;;;13.75;;
35364;SDS011;21464;48.112;11.530;2022-07-21T05:30:34;15.88;;;14.27;;
35364;SDS011;21464;48.112;11.530;2022-07-21T05:33:01;15.95;;;14.25;;
35364;SDS011;21464;48.112;11.530;2022-07-21T05:35:27;15.55;;;14.25;;
35364;SDS011;21464;48.112;11.530;2022-07-21T05:37:53;14.68;;;13.27;;
35364;SDS011;21464;48.112;11.530;2022-07-21T05:40:20;15.20;;;13.70;;
35364;SDS011;21464;48.112;11.530;2022-07-21T05:42:46;15.57;;;13.95;;
35364;SDS011;21464;48.112;11.530;2022-07-21T05:45:12;15.60;;;13.95;;
35364;SDS011;21464;48.112;11.530;2022-07-21T05:47:39;16.30;;;14.77;;
35364;SDS011;21464;48.112;11.530;2022-07-21T05:50:05;15.82;;;14.50;;
35364;SDS011;21464;48.112;11.530;2022-07-21T05:52:32;16.25;;;14.75;;
35364;SDS011;21464;48.112;11.530;2022-07-21T05:54:58;17.38;;;15.63;;
35364;SDS011;21464;48.112;11.530;2022-07-21T05:57:24;16.88;;;15.27;;
35364;SDS011;21464;48.112;11.530;2022-07-21T05:59:51;17.05;;;15.35;;
35364;SDS011;21464;48.112;11.530;2022-07-21T06:02:17;16.88;;;15.30;;
35364;SDS011;21464;48.112;11.530;2022-07-21T06:04:43;16.33;;;14.88;;
35364;SDS011;21464;48.112;11.530;2022-07-21T06:07:09;17.23;;;15.73;;
35364;SDS011;21464;48.112;11.530;2022-07-21T06:09:36;15.98;;;14.68;;
35364;SDS011;21464;48.112;11.530;2022-07-21T06:12:02;16.90;;;15.27;;
35364;SDS011;21464;48.112;11.530;2022-07-21T06:14:28;16.35;;;14.70;;
35364;SDS011;21464;48.112;11.530;2022-07-21T06:16:55;15.88;;;14.38;;
35364;SDS011;21464;48.112;11.530;2022-07-21T06:19:21;16.55;;;14.90;;
35364;SDS011;21464;48.112;11.530;2022-07-21T06:21:47;16.33;;;14.77;;
35364;SDS011;21464;48.112;11.530;2022-07-21T06:24:13;16.42;;;15.02;;
35364;SDS011;21464;48.112;11.530;2022-07-21T06:26:40;16.50;;;14.80;;
35364;SDS011;21464;48.112;11.530;2022-07-21T06:29:06;16.90;;;15.30;;
35364;SDS011;21464;48.112;11.530;2022-07-21T06:31:33;17.58;;;15.85;;
35364;SDS011;21464;48.112;11.530;2022-07-21T06:33:59;16.95;;;15.18;;
35364;SDS011;21464;48.112;11.530;2022-07-21T06:36:25;17.50;;;15.80;;
35364;SDS011;21464;48.112;11.530;2022-07-21T06:38:52;18.52;;;16.73;;
35364;SDS011;21464;48.112;11.530;2022-07-21T06:41:18;17.02;;;15.43;;
35364;SDS011;21464;48.112;11.530;2022-07-21T06:43:44;19.00;;;17.20;;
35364;SDS011;21464;48.112;11.530;2022-07-21T06:46:10;18.42;;;16.80;;
35364;SDS011;21464;48.112;11.530;2022-07-21T06:48:36;20.92;;;18.92;;
35364;SDS011;21464;48.112;11.530;2022-07-21T06:51:03;19.73;;;17.92;;
35364;SDS011;21464;48.112;11.530;2022-07-21T06:53:29;19.85;;;17.85;;
35364;SDS011;21464;48.112;11.530;2022-07-21T06:55:55;20.58;;;18.58;;
35364;SDS011;21464;48.112;11.530;2022-07-21T06:58:22;19.27;;;17.50;;
35364;SDS011;21464;48.112;11.530;2022-07-21T07:00:50;20.75;;;18.52;;
35364;SDS011;21464;48.112;11.530;2022-07-21T07:03:17;20.08;;;18.15;;
35364;SDS011;21464;48.112;11.530;2022-07-21T07:05:44;18.95;;;17.15;;
35364;SDS011;21464;48.112;11.530;2022-07-21T07:08:11;19.90;;;17.90;;
35364;SDS011;21464;48.112;11.530;2022-07-21T07:10:38;18.75;;;17.05;;
35364;SDS011;21464;48.112;11.530;2022-07-21T07:13:05;18.27;;;16.58;;
35364;SDS011;21464;48.112;11.530;2022-07-21T07:15:32;18.00;;;16.50;;
35364;SDS011;21464;48.112;11.530;2022-07-21T07:17:58;19.13;;;17.33;;
35364;SDS011;21464;48.112;11.530;2022-07-21T07:20:24;17.48;;;15.98;;
35364;SDS011;21464;48.112;11.530;2022-07-21T07:22:51;16.98;;;15.48;;
35364;SDS011;21464;48.112;11.530;2022-07-21T07:25:17;17.88;;;16.00;;
35364;SDS011;21464;48.112;11.530;2022-07-21T07:27:44;18.33;;;16.55;;
35364;SDS011;21464;48.112;11.530;2022-07-21T07:30:15;17.95;;;16.17;;
35364;SDS011;21464;48.112;11.530;2022-07-21T07:32:41;17.42;;;15.55;;
35364;SDS011;21464;48.112;11.530;2022-07-21T07:35:08;16.73;;;15.00;;
35364;SDS011;21464;48.112;11.530;2022-07-21T07:37:36;17.95;;;16.10;;
35364;SDS011;21464;48.112;11.530;2022-07-21T07:40:04;17.48;;;15.73;;
35364;SDS011;21464;48.112;11.530;2022-07-21T07:42:31;16.98;;;15.43;;
35364;SDS011;21464;48.112;11.530;2022-07-21T07:44:58;18.00;;;16.30;;
35364;SDS011;21464;48.112;11.530;2022-07-21T07:47:24;16.27;;;14.77;;
35364;SDS011;21464;48.112;11.530;2022-07-21T07:49:51;14.88;;;13.45;;
35364;SDS011;21464;48.112;11.530;2022-07-21T07:52:19;13.85;;;12.55;;
35364;SDS011;21464;48.112;11.530;2022-07-21T07:54:46;14.48;;;13.18;;
35364;SDS011;21464;48.112;11.530;2022-07-21T07:57:12;14.68;;;13.38;;
35364;SDS011;21464;48.112;11.530;2022-07-21T07:59:38;14.52;;;13.13;;
35364;SDS011;21464;48.112;11.530;2022-07-21T08:02:04;14.68;;;13.13;;
35364;SDS011;21464;48.112;11.530;2022-07-21T08:04:31;14.55;;;13.25;;
35364;SDS011;21464;48.112;11.530;2022-07-21T08:06:57;14.93;;;13.45;;
35364;SDS011;21464;48.112;11.530;2022-07-21T08:09:23;15.65;;;14.30;;
35364;SDS011;21464;48.112;11.530;2022-07-21T08:11:49;16.00;;;14.60;;
35364;SDS011;21464;48.112;11.530;2022-07-21T08:14:16;15.98;;;14.45;;
35364;SDS011;21464;48.112;11.530;2022-07-21T08:16:43;16.23;;;14.73;;
35364;SDS011;21464;48.112;11.530;2022-07-21T08:19:09;15.52;;;14.10;;
35364;SDS011;21464;48.112;11.530;2022-07-21T08:21:35;17.05;;;15.45;;
35364;SDS011;21464;48.112;11.530;2022-07-21T08:24:02;16.10;;;14.60;;
35364;SDS011;21464;48.112;11.530;2022-07-21T08:26:28;15.35;;;13.90;;
35364;SDS011;21464;48.112;11.530;2022-07-21T08:28:55;16.95;;;15.25;;
35364;SDS011;21464;48.112;11.530;2022-07-21T08:31:23;17.00;;;15.30;;
35364;SDS011;21464;48.112;11.530;2022-07-21T08:33:50;15.43;;;13.93;;
35364;SDS011;21464;48.112;11.530;2022-07-21T08:36:17;16.13;;;14.63;;
35364;SDS011;21464;48.112;11.530;2022-07-21T08:38:43;15.52;;;13.85;;
35364;SDS011;21464;48.112;11.530;2022-07-21T08:41:10;16.13;;;14.27;;
35364;SDS011;21464;48.112;11.530;2022-07-21T08:43:37;15.27;;;13.60;;
35364;SDS011;21464;48.112;11.530;2022-07-21T08:46:03;15.32;;;13.80;;
35364;SDS011;21464;48.112;11.530;2022-07-21T08:48:30;15.35;;;13.70;;
35364;SDS011;21464;48.112;11.530;2022-07-21T08:50:57;14.98;;;13.57;;
35364;SDS011;21464;48.112;11.530;2022-07-21T08:53:24;16.17;;;14.70;;
35364;SDS011;21464;48.112;11.530;2022-07-21T08:55:50;15.38;;;13.93;;
35364;SDS011;21464;48.112;11.530;2022-07-21T08:58:17;15.75;;;14.35;;
35364;SDS011;21464;48.112;11.530;2022-07-21T09:00:45;16.13;;;14.55;;
35364;SDS011;21464;48.112;11.530;2022-07-21T09:03:17;16.08;;;14.55;;
35364;SDS011;21464;48.112;11.530;2022-07-21T09:05:58;14.68;;;13.27;;
35364;SDS011;21464;48.112;11.530;2022-07-21T09:08:36;14.80;;;13.40;;
35364;SDS011;21464;48.112;11.530;2022-07-21T09:11:17;15.45;;;14.05;;
35364;SDS011;21464;48.112;11.530;2022-07-21T09:13:46;14.82;;;13.45;;
35364;SDS011;21464;48.112;11.530;2022-07-21T09:16:33;14.60;;;13.23;;
35364;SDS011;21464;48.112;11.530;2022-07-21T09:19:06;15.05;;;13.48;;
35364;SDS011;21464;48.112;11.530;2022-07-21T09:21:33;14.32;;;13.02;;
35364;SDS011;21464;48.112;11.530;2022-07-21T09:29:46;13.50;;;12.20;;
35364;SDS011;21464;48.112;11.530;2022-07-21T09:34:43;15.48;;;13.90;;
35364;SDS011;21464;48.112;11.530;2022-07-21T09:37:10;14.82;;;13.35;;
35364;SDS011;21464;48.112;11.530;2022-07-21T09:39:56;14.00;;;12.80;;
35364;SDS011;21464;48.112;11.530;2022-07-21T09:44:54;16.08;;;14.48;;
35364;SDS011;21464;48.112;11.530;2022-07-21T09:47:26;14.95;;;13.55;;
35364;SDS011;21464;48.112;11.530;2022-07-21T09:49:55;14.20;;;12.90;;
35364;SDS011;21464;48.112;11.530;2022-07-21T09:52:23;13.90;;;12.50;;
35364;SDS011;21464;48.112;11.530;2022-07-21T09:54:52;13.63;;;12.43;;
35364;SDS011;21464;48.112;11.530;2022-07-21T09:57:20;14.50;;;13.02;;
35364;SDS011;21464;48.112;11.530;2022-07-21T09:59:47;15.52;;;13.95;;
35364;SDS011;21464;48.112;11.530;2022-07-21T10:02:15;15.00;;;13.50;;
35364;SDS011;21464;48.112;11.530;2022-07-21T10:04:45;15.13;;;13.65;;
35364;SDS011;21464;48.112;11.530;2022-07-21T10:07:12;16.77;;;15.18;;
35364;SDS011;21464;48.112;11.530;2022-07-21T10:09:40;23.50;;;20.10;;
35364;SDS011;21464;48.112;11.530;2022-07-21T10:12:06;17.05;;;15.25;;
35364;SDS011;21464;48.112;11.530;2022-07-21T10:14:34;15.48;;;13.98;;
35364;SDS011;21464;48.112;11.530;2022-07-21T10:17:02;15.52;;;14.20;;
35364;SDS011;21464;48.112;11.530;2022-07-21T10:19:30;14.68;;;13.38;;
35364;SDS011;21464;48.112;11.530;2022-07-21T10:22:01;14.40;;;13.07;;
35364;SDS011;21464;48.112;11.530;2022-07-21T10:24:33;15.27;;;13.80;;
35364;SDS011;21464;48.112;11.530;2022-07-21T10:27:10;16.42;;;14.27;;
35364;SDS011;21464;48.112;11.530;2022-07-21T10:29:57;17.35;;;15.75;;
35364;SDS011;21464;48.112;11.530;2022-07-21T10:34:58;19.15;;;17.30;;
35364;SDS011;21464;48.112;11.530;2022-07-21T10:40:52;16.13;;;14.63;;
35364;SDS011;21464;48.112;11.530;2022-07-21T10:45:33;17.98;;;16.08;;
35364;SDS011;21464;48.112;11.530;2022-07-21T10:48:01;17.05;;;15.35;;
35364;SDS011;21464;48.112;11.530;2022-07-21T10:50:30;17.27;;;15.55;;
35364;SDS011;21464;48.112;11.530;2022-07-21T10:52:58;17.63;;;15.93;;
35364;SDS011;21464;48.112;11.530;2022-07-21T10:55:26;16.92;;;15.35;;
35364;SDS011;21464;48.112;11.530;2022-07-21T10:58:37;16.80;;;15.30;;
35364;SDS011;21464;48.112;11.530;2022-07-21T11:03:41;15.40;;;14.10;;
35364;SDS011;21464;48.112;11.530;2022-07-21T11:06:11;15.40;;;13.90;;
35364;SDS011;21464;48.112;11.530;2022-07-21T11:08:44;15.82;;;14.35;;
35364;SDS011;21464;48.112;11.530;2022-07-21T11:21:57;17.02;;;15.38;;
35364;SDS011;21464;48.112;11.530;2022-07-21T11:24:25;16.50;;;14.57;;
35364;SDS011;21464;48.112;11.530;2022-07-21T11:26:53;15.77;;;14.35;;
35364;SDS011;21464;48.112;11.530;2022-07-21T11:29:23;16.48;;;14.90;;
35364;SDS011;21464;48.112;11.530;2022-07-21T11:31:50;16.52;;;15.10;;
35364;SDS011;21464;48.112;11.530;2022-07-21T11:34:16;17.85;;;16.05;;
35364;SDS011;21464;48.112;11.530;2022-07-21T11:36:42;17.08;;;15.38;;
35364;SDS011;21464;48.112;11.530;2022-07-21T11:39:10;17.38;;;15.75;;
35364;SDS011;21464;48.112;11.530;2022-07-21T11:41:40;16.10;;;14.70;;
35364;SDS011;21464;48.112;11.530;2022-07-21T11:44:08;18.25;;;15.85;;
35364;SDS011;21464;48.112;11.530;2022-07-21T11:46:57;17.30;;;15.73;;
35364;SDS011;21464;48.112;11.530;2022-07-21T11:49:25;19.30;;;17.42;;
35364;SDS011;21464;48.112;11.530;2022-07-21T11:51:59;18.33;;;16.58;;
35364;SDS011;21464;48.112;11.530;2022-07-21T11:56:54;17.98;;;16.27;;
35364;SDS011;21464;48.112;11.530;2022-07-21T11:59:22;19.98;;;18.05;;
35364;SDS011;21464;48.112;11.530;2022-07-21T12:01:53;19.63;;;17.77;;
35364;SDS011;21464;48.112;11.530;2022-07-21T12:07:02;17.88;;;16.08;;
35364;SDS011;21464;48.112;11.530;2022-07-21T12:09:29;18.98;;;17.25;;
35364;SDS011;21464;48.112;11.530;2022-07-21T12:11:56;19.35;;;17.45;;
35364;SDS011;21464;48.112;11.530;2022-07-21T12:17:13;19.50;;;17.63;;
35364;SDS011;21464;48.112;11.530;2022-07-21T12:19:40;19.45;;;17.45;;
35364;SDS011;21464;48.112;11.530;2022-07-21T12:22:07;18.55;;;16.65;;
35364;SDS011;21464;48.112;11.530;2022-07-21T12:27:22;18.75;;;16.95;;
35364;SDS011;21464;48.112;11.530;2022-07-21T12:29:48;18.85;;;17.05;;
35364;SDS011;21464;48.112;11.530;2022-07-21T12:32:15;18.80;;;17.00;;
35364;SDS011;21464;48.112;11.530;2022-07-21T12:35:22;18.45;;;16.48;;
35364;SDS011;21464;48.112;11.530;2022-07-21T12:40:23;19.45;;;17.63;;
35364;SDS011;21464;48.112;11.530;2022-07-21T12:42:49;19.25;;;17.45;;
35364;SDS011;21464;48.112;11.530;2022-07-21T12:45:16;18.70;;;16.75;;
35364;SDS011;21464;48.112;11.530;2022-07-21T12:48:04;17.90;;;16.00;;
35364;SDS011;21464;48.112;11.530;2022-07-21T12:50:34;18.00;;;16.30;;
35364;SDS011;21464;48.112;11.530;2022-07-21T12:53:00;18.52;;;16.80;;
35364;SDS011;21464;48.112;11.530;2022-07-21T12:55:27;16.52;;;15.05;;
35364;SDS011;21464;48.112;11.530;2022-07-21T12:57:53;15.25;;;13.70;;
35364;SDS011;21464;48.112;11.530;2022-07-21T13:00:19;18.05;;;16.35;;
35364;SDS011;21464;48.112;11.530;2022-07-21T13:02:49;18.95;;;17.13;;
35364;SDS011;21464;48.112;11.530;2022-07-21T13:05:19;17.10;;;15.40;;
35364;SDS011;21464;48.112;11.530;2022-07-21T13:07:46;16.88;;;15.25;;
35364;SDS011;21464;48.112;11.530;2022-07-21T13:10:12;18.58;;;16.77;;
35364;SDS011;21464;48.112;11.530;2022-07-21T13:12:39;16.23;;;14.68;;
35364;SDS011;21464;48.112;11.530;2022-07-21T13:15:05;16.95;;;15.25;;
35364;SDS011;21464;48.112;11.530;2022-07-21T13:17:32;16.88;;;15.20;;
35364;SDS011;21464;48.112;11.530;2022-07-21T13:19:58;16.58;;;14.98;;
35364;SDS011;21464;48.112;11.530;2022-07-21T13:22:24;17.08;;;15.38;;
35364;SDS011;21464;48.112;11.530;2022-07-21T13:24:50;16.85;;;15.18;;
35364;SDS011;21464;48.112;11.530;2022-07-21T13:27:17;16.70;;;15.05;;
35364;SDS011;21464;48.112;11.530;2022-07-21T13:29:43;15.60;;;14.23;;
35364;SDS011;21464;48.112;11.530;2022-07-21T13:32:09;15.77;;;14.27;;
35364;SDS011;21464;48.112;11.530;2022-07-21T13:34:36;16.50;;;14.77;;
35364;SDS011;21464;48.112;11.530;2022-07-21T13:37:02;16.75;;;14.27;;
35364;SDS011;21464;48.112;11.530;2022-07-21T13:39:28;16.88;;;15.27;;
35364;SDS011;21464;48.112;11.530;2022-07-21T13:41:55;18.50;;;16.73;;
35364;SDS011;21464;48.112;11.530;2022-07-21T13:44:21;17.42;;;15.73;;
35364;SDS011;21464;48.112;11.530;2022-07-21T13:46:48;16.33;;;14.68;;
35364;SDS011;21464;48.112;11.530;2022-07-21T13:49:14;15.48;;;14.07;;
35364;SDS011;21464;48.112;11.530;2022-07-21T13:51:41;17.23;;;15.63;;
35364;SDS011;21464;48.112;11.530;2022-07-21T13:54:07;16.00;;;14.48;;
35364;SDS011;21464;48.112;11.530;2022-07-21T13:56:33;16.65;;;15.07;;
35364;SDS011;21464;48.112;11.530;2022-07-21T13:58:59;16.95;;;15.18;;
35364;SDS011;21464;48.112;11.530;2022-07-21T14:01:26;15.48;;;14.07;;
35364;SDS011;21464;48.112;11.530;2022-07-21T14:03:52;15.55;;;13.93;;
35364;SDS011;21464;48.112;11.530;2022-07-21T14:06:18;16.00;;;14.38;;
35364;SDS011;21464;48.112;11.530;2022-07-21T14:08:45;15.95;;;14.50;;
35364;SDS011;21464;48.112;11.530;2022-07-21T14:11:11;16.35;;;14.73;;
35364;SDS011;21464;48.112;11.530;2022-07-21T14:13:39;17.00;;;15.48;;
35364;SDS011;21464;48.112;11.530;2022-07-21T14:16:06;16.13;;;14.60;;
35364;SDS011;21464;48.112;11.530;2022-07-21T14:18:33;18.95;;;17.10;;
35364;SDS011;21464;48.112;11.530;2022-07-21T14:20:59;22.98;;;19.83;;
35364;SDS011;21464;48.112;11.530;2022-07-21T14:23:25;19.33;;;17.27;;
35364;SDS011;21464;48.112;11.530;2022-07-21T14:25:52;17.50;;;15.80;;
35364;SDS011;21464;48.112;11.530;2022-07-21T14:28:19;16.92;;;15.40;;
35364;SDS011;21464;48.112;11.530;2022-07-21T14:30:45;16.00;;;14.40;;
35364;SDS011;21464;48.112;11.530;2022-07-21T14:33:12;16.13;;;14.57;;
35364;SDS011;21464;48.112;11.530;2022-07-21T14:35:38;15.35;;;13.98;;
35364;SDS011;21464;48.112;11.530;2022-07-21T14:38:05;14.40;;;13.10;;
35364;SDS011;21464;48.112;11.530;2022-07-21T14:40:31;14.05;;;12.63;;
35364;SDS011;21464;48.112;11.530;2022-07-21T14:42:57;14.55;;;13.05;;
35364;SDS011;21464;48.112;11.530;2022-07-21T14:45:24;14.43;;;12.73;;
35364;SDS011;21464;48.112;11.530;2022-07-21T14:47:50;14.77;;;13.23;;
35364;SDS011;21464;48.112;11.530;2022-07-21T14:50:17;13.27;;;11.90;;
35364;SDS011;21464;48.112;11.530;2022-07-21T14:52:43;13.43;;;12.13;;
35364;SDS011;21464;48.112;11.530;2022-07-21T14:55:10;12.57;;;11.48;;
35364;SDS011;21464;48.112;11.530;2022-07-21T14:57:36;13.05;;;11.75;;
35364;SDS011;21464;48.112;11.530;2022-07-21T15:00:03;12.73;;;11.43;;
35364;SDS011;21464;48.112;11.530;2022-07-21T15:02:31;12.88;;;11.77;;
35364;SDS011;21464;48.112;11.530;2022-07-21T15:04:57;12.68;;;11.43;;